WetterOnline ( https://www.wetteronline.ch )

Wetter aktuell Berlin

Aktuelles Wetter: Berlin-Dahlem (70m)

6-stündlich | Neueste Meldungen
Ortszeit Temperatur Wetter
Do, 27.01. 7:00 4.0° C bedeckt
Do, 27.01. 1:00 3.1° C bedeckt
Mi, 26.01. 19:00 1.9° C bedeckt
Mi, 26.01. 13:00 3.0° C Sprühregen
Mi, 26.01. 7:00 2.7° C Sprühregen
Mi, 26.01. 1:00 3.8° C Sprühregen
Di, 25.01. 19:00 4.1° C Sprühregen
Di, 25.01. 13:00 4.3° C bedeckt
Ortszeit Temperatur Wetter
Do, 27.01. 12:00 3.0° C Sprühregen
Do, 27.01. 11:00 3.3° C Sprühregen
Do, 27.01. 10:00 3.8° C bewölkt
Do, 27.01. 9:00 3.7° C Sprühregen
Do, 27.01. 8:00 3.6° C Sprühregen
Do, 27.01. 7:00 4.0° C bedeckt
Ortszeit Relative Feuchte Sichtweite
Do, 27.01. 7:00 81% 30 km
Do, 27.01. 1:00 90% 10 km
Mi, 26.01. 19:00 93% 10 km
Mi, 26.01. 13:00 90% 10 km
Mi, 26.01. 7:00 97% 8 km
Mi, 26.01. 1:00 98% 6 km
Di, 25.01. 19:00 98% 2.7 km
Di, 25.01. 13:00 94% 10 km
Ortszeit Relative Feuchte Sichtweite
Do, 27.01. 12:00 94% 2.8 km
Do, 27.01. 11:00 83% 5.0 km
Do, 27.01. 10:00 78% 17 km
Do, 27.01. 9:00 81% 10 km
Do, 27.01. 8:00 85% 14 km
Do, 27.01. 7:00 81% 30 km
Ortszeit Niederschlagsmenge Niederschlagsart
Do, 27.01. 7:00 0.1 l/m2 in 12 Std. Regen
Do, 27.01. 1:00 0.1 l/m2 in 6 Std. Sprühregen
Mi, 26.01. 19:00 0.2 l/m2 in 12 Std. Regen
Mi, 26.01. 13:00 0.1 l/m2 in 6 Std. Regen
Mi, 26.01. 7:00 0.5 l/m2 in 12 Std. Regen
Mi, 26.01. 1:00 0.2 l/m2 in 6 Std. Regen
Di, 25.01. 19:00 0.3 l/m2 in 12 Std. Sprühregen
Di, 25.01. 13:00 0.2 l/m2 in 6 Std. Sprühregen
Ortszeit Niederschlagsmenge Niederschlagsart
Do, 27.01. 12:00 keine Meldung -
Do, 27.01. 11:00 keine Meldung -
Do, 27.01. 10:00 keine Meldung -
Do, 27.01. 9:00 keine Meldung -
Do, 27.01. 8:00 keine Meldung -
Do, 27.01. 7:00 keine Meldung -
Ortszeit Stärke Spitze Richtung
km/h Bft. km/h Grad Sektor
Do, 27.01. 7:00 25 4 54 240° SW
Do, 27.01. 1:00 18 3 - 260° W
Mi, 26.01. 19:00 18 3 - 260° W
Mi, 26.01. 13:00 29 5 - 290° W
Mi, 26.01. 7:00 14 3 - 270° W
Mi, 26.01. 1:00 14 3 - 270° W
Di, 25.01. 19:00 14 3 - 270° W
Di, 25.01. 13:00 11 2 - 270° W
Ortszeit Stärke Spitze Richtung
km/h Bft. km/h Grad Sektor
Do, 27.01. 12:00 22 4 - 240° SW
Do, 27.01. 11:00 25 4 50 240° SW
Do, 27.01. 10:00 25 4 50 240° SW
Do, 27.01. 9:00 25 4 50 250° W
Do, 27.01. 8:00 22 4 50 240° SW
Do, 27.01. 7:00 25 4 54 240° SW
Ortszeit Untergrenze Bedeckung Gattung
total tief tief mittel hoch
Do, 27.01. 7:00 390 m 8/8 7/8 Sc - -
Do, 27.01. 1:00 240 m 8/8 7/8 St - -
Mi, 26.01. 19:00 180 m 8/8 7/8 St - -
Mi, 26.01. 13:00 330 m 8/8 7/8 Sc - -
Mi, 26.01. 7:00 180 m 8/8 7/8 St - -
Mi, 26.01. 1:00 120 m 8/8 8/8 St - -
Di, 25.01. 19:00 90 m 8/8 8/8 St - -
Di, 25.01. 13:00 270 m 8/8 7/8 St - -
Ortszeit Bedeckungsgrad in Achtel und Wolkenuntergrenze
Do, 27.01. 12:00 8(180m)
Do, 27.01. 11:00 6(210m) 7(420m) 8
Do, 27.01. 10:00 4(390m) 7(480m)
Do, 27.01. 9:00 6(360m) 7(480m) 8
Do, 27.01. 8:00 5(300m) 7(480m) 8
Do, 27.01. 7:00 7(390m)
Ortszeit Luftdruck NN (hPa) Tendenz (hPa in 3 Std.)
Do, 27.01. 7:00 1018 - 2,7
Do, 27.01. 1:00 1023 - 1,4
Mi, 26.01. 19:00 1026 - 0,7
Mi, 26.01. 13:00 1028 - 0,2
Mi, 26.01. 7:00 1028 - 0,6
Mi, 26.01. 1:00 1030 - 0,8
Di, 25.01. 19:00 1031 + 0,4
Di, 25.01. 13:00 1031 - 0,6
Ortszeit Luftdruck NN (hPa) Tendenz (hPa in 3 Std.)
Do, 27.01. 12:00 1016 - 1,5
Do, 27.01. 11:00 1016 - 1,3
Do, 27.01. 10:00 1016 - 1,5
Do, 27.01. 9:00 1017 - 2,1
Do, 27.01. 8:00 1017 - 2,3
Do, 27.01. 7:00 1018 - 2,7
Ortszeit Schneehöhe (cm)
Do, 27.01. 7:00 0
Do, 27.01. 1:00 0
Mi, 26.01. 19:00 0
Mi, 26.01. 13:00 0
Mi, 26.01. 7:00 0
Mi, 26.01. 1:00 0
Di, 25.01. 19:00 0
Di, 25.01. 13:00 0
Ortszeit Schneehöhe (cm)
Do, 27.01. 12:00 -
Do, 27.01. 11:00 -
Do, 27.01. 10:00 -
Do, 27.01. 9:00 -
Do, 27.01. 8:00 -
Do, 27.01. 7:00 0
Link zu dieser Seite / Seite empfehlen

Das Wetter in ...